Time;durP1;ratioP1;P1;durP2;ratioP2;P2;SDS_P1;SDS_P2;PMS_P1;PMS_P2;Temp;Humidity;BMP_temperature;BMP_pressure;BME280_temperature;BME280_humidity;BME280_pressure;Samples;Min_cycle;Max_cycle;Signal;HPM_P1;HPM_P2
2024/01/07 00:01:34;;;;;;;10.50;7.45;;;;;;;;;;5074363;28;20084;-73
2024/01/07 00:03:59;;;;;;;8.45;7.28;;;;;;;;;;5074595;28;20105;-68
2024/01/07 00:06:24;;;;;;;8.90;6.82;;;;;;;;;;5074187;28;20098;-63
2024/01/07 00:08:50;;;;;;;24.50;17.92;;;;;;;;;;5056830;28;20036;-63
2024/01/07 00:11:15;;;;;;;64.68;51.83;;;;;;;;;;5075346;28;20032;-71
2024/01/07 00:13:40;;;;;;;89.90;69.93;;;;;;;;;;5074756;28;20127;-72
2024/01/07 00:16:06;;;;;;;22.60;20.40;;;;;;;;;;5074936;28;20060;-72
2024/01/07 00:21:43;;;;;;;9.10;8.15;;;;;;;;;;5045958;23;20063;-63
2024/01/07 00:24:09;;;;;;;9.38;7.38;;;;;;;;;;5075208;28;20025;-64
2024/01/07 00:26:34;;;;;;;6.93;6.22;;;;;;;;;;5057294;28;20459;-63
2024/01/07 00:28:59;;;;;;;8.85;6.80;;;;;;;;;;5057408;28;20411;-64
2024/01/07 00:31:25;;;;;;;8.10;7.03;;;;;;;;;;5075237;28;20029;-63
2024/01/07 00:33:50;;;;;;;6.60;6.00;;;;;;;;;;5074937;28;20048;-64
2024/01/07 00:36:17;;;;;;;7.07;6.38;;;;;;;;;;5075330;28;20044;-64
2024/01/07 00:38:43;;;;;;;6.93;6.32;;;;;;;;;;5074884;28;20036;-64
2024/01/07 00:41:09;;;;;;;6.05;5.53;;;;;;;;;;5074572;28;20055;-64
2024/01/07 00:43:34;;;;;;;7.45;5.72;;;;;;;;;;5056731;28;20044;-63
2024/01/07 00:46:00;;;;;;;7.35;6.35;;;;;;;;;;5074475;28;20107;-63
2024/01/07 00:48:26;;;;;;;6.25;5.15;;;;;;;;;;5039921;28;20039;-63
2024/01/07 00:50:51;;;;;;;6.82;6.15;;;;;;;;;;5056509;28;20033;-64
2024/01/07 00:53:17;;;;;;;7.65;6.43;;;;;;;;;;5074231;28;20386;-64
2024/01/07 00:55:43;;;;;;;60.47;36.20;;;;;;;;;;5056400;28;20070;-64
2024/01/07 00:58:08;;;;;;;15.40;13.65;;;;;;;;;;5056907;28;20058;-63
2024/01/07 01:00:33;;;;;;;36.80;23.30;;;;;;;;;;5074334;28;20085;-63
2024/01/07 01:02:59;;;;;;;11.65;9.90;;;;;;;;;;5056225;28;20036;-63
2024/01/07 01:05:26;;;;;;;19.77;16.95;;;;;;;;;;5039927;28;20055;-63
2024/01/07 01:07:52;;;;;;;8.13;6.65;;;;;;;;;;5056390;28;20028;-63
2024/01/07 01:10:17;;;;;;;8.15;7.45;;;;;;;;;;5056117;28;20029;-64
2024/01/07 01:12:43;;;;;;;5.57;5.07;;;;;;;;;;5074202;28;20069;-64
2024/01/07 01:15:10;;;;;;;5.85;5.20;;;;;;;;;;5074065;28;20055;-64
2024/01/07 01:17:35;;;;;;;5.65;5.13;;;;;;;;;;5074493;28;20470;-63
2024/01/07 01:20:02;;;;;;;5.25;4.75;;;;;;;;;;5074330;28;20028;-63
2024/01/07 01:22:28;;;;;;;6.13;5.13;;;;;;;;;;5056431;28;20062;-64
2024/01/07 01:24:53;;;;;;;5.55;5.05;;;;;;;;;;5074366;28;20112;-64
2024/01/07 01:27:19;;;;;;;6.07;5.47;;;;;;;;;;5072637;28;20024;-64
2024/01/07 01:29:44;;;;;;;5.78;5.28;;;;;;;;;;5074070;28;20487;-64
2024/01/07 01:32:10;;;;;;;5.10;4.55;;;;;;;;;;5073950;28;20055;-64
2024/01/07 01:34:35;;;;;;;5.22;4.72;;;;;;;;;;5055738;28;20122;-64
2024/01/07 01:37:01;;;;;;;4.95;4.53;;;;;;;;;;5073679;28;20024;-65
2024/01/07 01:39:28;;;;;;;5.20;4.70;;;;;;;;;;5073958;28;20037;-65
2024/01/07 01:41:54;;;;;;;4.72;4.32;;;;;;;;;;5073593;28;20463;-63
2024/01/07 01:44:19;;;;;;;4.70;4.22;;;;;;;;;;5073927;28;20028;-63
2024/01/07 01:46:45;;;;;;;5.97;4.18;;;;;;;;;;5055973;28;20012;-63
2024/01/07 01:49:11;;;;;;;5.30;4.72;;;;;;;;;;5073860;28;20359;-63
2024/01/07 01:51:36;;;;;;;4.45;4.03;;;;;;;;;;5039019;28;20051;-63
2024/01/07 01:54:02;;;;;;;6.18;4.60;;;;;;;;;;5039213;28;20036;-63
2024/01/07 01:56:28;;;;;;;5.47;4.50;;;;;;;;;;5073476;28;20386;-64
2024/01/07 01:58:54;;;;;;;6.40;4.32;;;;;;;;;;5056370;28;20028;-64
2024/01/07 02:01:19;;;;;;;5.40;4.90;;;;;;;;;;5073661;28;20032;-65
2024/01/07 02:03:46;;;;;;;4.60;4.20;;;;;;;;;;5072220;28;20064;-64
2024/01/07 02:06:11;;;;;;;4.75;4.32;;;;;;;;;;5073681;28;20059;-64
2024/01/07 02:08:38;;;;;;;4.35;3.95;;;;;;;;;;5073725;28;20431;-63
2024/01/07 02:11:19;;;;;;;4.97;4.57;;;;;;;;;;5055731;28;20036;-64
2024/01/07 02:13:45;;;;;;;4.70;4.30;;;;;;;;;;5077409;28;20035;-64
2024/01/07 02:16:11;;;;;;;4.68;4.10;;;;;;;;;;5059454;28;20024;-64
2024/01/07 02:18:40;;;;;;;6.30;4.53;;;;;;;;;;5077601;28;20082;-64
2024/01/07 02:21:06;;;;;;;4.50;4.10;;;;;;;;;;5077094;28;20025;-64
2024/01/07 02:23:32;;;;;;;5.70;4.60;;;;;;;;;;5077109;28;20467;-64
2024/01/07 02:25:57;;;;;;;5.00;4.50;;;;;;;;;;5059257;28;20025;-64
2024/01/07 02:28:22;;;;;;;3.97;3.67;;;;;;;;;;5059226;28;20033;-64
2024/01/07 02:30:48;;;;;;;4.72;4.18;;;;;;;;;;5059217;28;20032;-75
2024/01/07 02:33:13;;;;;;;5.05;4.25;;;;;;;;;;5059401;28;20060;-74
2024/01/07 02:35:39;;;;;;;6.43;4.32;;;;;;;;;;5077138;28;20029;-75
2024/01/07 02:38:04;;;;;;;4.80;3.95;;;;;;;;;;5059369;28;20036;-74
2024/01/07 02:40:29;;;;;;;6.00;4.72;;;;;;;;;;5076423;22;20064;-74
2024/01/07 02:42:56;;;;;;;4.72;4.32;;;;;;;;;;5056882;28;20433;-75
2024/01/07 02:45:22;;;;;;;5.03;4.50;;;;;;;;;;5038596;28;20029;-75
2024/01/07 02:47:47;;;;;;;5.40;4.57;;;;;;;;;;5056936;28;20041;-75
2024/01/07 02:50:13;;;;;;;4.88;4.43;;;;;;;;;;5057220;28;20060;-75
2024/01/07 02:52:38;;;;;;;5.15;4.25;;;;;;;;;;5038834;28;20086;-69
2024/01/07 02:55:04;;;;;;;3.92;3.55;;;;;;;;;;5100619;22;20057;-75
2024/01/07 02:57:32;;;;;;;5.20;3.85;;;;;;;;;;5110233;22;20052;31
2024/01/07 02:59:58;;;;;;;5.13;3.90;;;;;;;;;;5069937;22;20088;-66
2024/01/07 03:02:23;;;;;;;4.38;3.95;;;;;;;;;;5076500;28;20383;-65
2024/01/07 03:04:48;;;;;;;4.85;4.35;;;;;;;;;;5077286;28;20070;-65
2024/01/07 03:07:14;;;;;;;4.93;3.75;;;;;;;;;;5076393;28;20021;-64
2024/01/07 03:09:39;;;;;;;5.63;3.65;;;;;;;;;;5076189;28;20032;-63
2024/01/07 03:12:05;;;;;;;4.15;3.83;;;;;;;;;;5076350;28;20020;-63
2024/01/07 03:14:30;;;;;;;4.30;3.75;;;;;;;;;;5076573;28;20039;-63
2024/01/07 03:16:55;;;;;;;5.18;3.97;;;;;;;;;;5076199;28;20036;-63
2024/01/07 03:19:21;;;;;;;8.95;4.00;;;;;;;;;;5075520;28;20032;-63
2024/01/07 03:21:47;;;;;;;3.88;3.50;;;;;;;;;;5076841;28;20060;-64
2024/01/07 03:24:13;;;;;;;3.95;3.55;;;;;;;;;;5076172;28;20063;-63
2024/01/07 03:26:38;;;;;;;4.50;4.10;;;;;;;;;;5076353;28;20032;-63
2024/01/07 03:29:04;;;;;;;3.80;3.50;;;;;;;;;;5076609;28;20037;-63
2024/01/07 03:31:30;;;;;;;4.43;4.00;;;;;;;;;;5075916;28;20032;-63
2024/01/07 03:33:56;;;;;;;3.60;3.30;;;;;;;;;;5074587;28;20474;-63
2024/01/07 03:36:21;;;;;;;4.00;3.65;;;;;;;;;;5075817;28;20082;-63
2024/01/07 03:38:47;;;;;;;4.68;4.28;;;;;;;;;;5076316;28;20099;-63
2024/01/07 03:41:19;;;;;;;4.30;3.90;;;;;;;;;;5075738;28;20028;-63
2024/01/07 03:43:46;;;;;;;4.25;3.83;;;;;;;;;;5076016;28;20050;-63
2024/01/07 03:46:11;;;;;;;3.70;3.40;;;;;;;;;;5076286;28;20036;-63
2024/01/07 03:48:37;;;;;;;3.83;3.53;;;;;;;;;;5075947;28;20063;-64
2024/01/07 03:51:03;;;;;;;3.90;3.58;;;;;;;;;;5075897;28;20115;-63
2024/01/07 03:53:28;;;;;;;4.60;3.63;;;;;;;;;;5040917;28;20020;-63
2024/01/07 03:55:54;;;;;;;3.92;3.50;;;;;;;;;;5057824;28;20032;-64
2024/01/07 03:58:19;;;;;;;4.88;3.13;;;;;;;;;;5057965;28;20040;-64
2024/01/07 04:00:45;;;;;;;3.70;3.40;;;;;;;;;;5057007;28;20120;-64
2024/01/07 04:03:10;;;;;;;4.43;3.45;;;;;;;;;;5040828;28;20064;-64
2024/01/07 04:05:37;;;;;;;3.30;3.08;;;;;;;;;;5057383;28;20043;-64
2024/01/07 04:08:03;;;;;;;3.58;3.05;;;;;;;;;;5075574;28;20040;-64
2024/01/07 04:10:28;;;;;;;3.60;3.30;;;;;;;;;;5075504;28;20029;-64
2024/01/07 04:12:54;;;;;;;3.83;3.25;;;;;;;;;;5075129;28;20047;-64
2024/01/07 04:15:19;;;;;;;3.13;2.83;;;;;;;;;;5075140;28;20075;-64
2024/01/07 04:17:45;;;;;;;3.30;3.00;;;;;;;;;;5075371;28;20459;-64
2024/01/07 04:20:12;;;;;;;3.58;3.25;;;;;;;;;;5075594;28;20063;-64
2024/01/07 04:22:38;;;;;;;4.20;3.30;;;;;;;;;;5075531;28;20039;-64
2024/01/07 04:25:03;;;;;;;4.70;3.15;;;;;;;;;;5075181;28;20032;-65
2024/01/07 04:27:30;;;;;;;4.07;3.10;;;;;;;;;;5075182;28;20028;-65
2024/01/07 04:29:55;;;;;;;3.47;3.17;;;;;;;;;;5075385;28;20040;-65
2024/01/07 04:32:22;;;;;;;3.10;2.67;;;;;;;;;;5075278;28;20123;-65
2024/01/07 04:34:47;;;;;;;3.90;3.10;;;;;;;;;;5056407;28;20039;-64
2024/01/07 04:37:12;;;;;;;3.67;3.30;;;;;;;;;;5074677;28;20033;-64
2024/01/07 04:39:38;;;;;;;2.95;2.75;;;;;;;;;;5075194;28;20029;-63
2024/01/07 04:42:03;;;;;;;3.33;3.05;;;;;;;;;;5074618;28;20121;-63
2024/01/07 04:44:29;;;;;;;3.40;3.05;;;;;;;;;;5074849;28;20090;-63
2024/01/07 04:46:54;;;;;;;3.17;2.90;;;;;;;;;;5074467;28;20028;-63
2024/01/07 04:49:19;;;;;;;2.72;2.53;;;;;;;;;;5100260;22;20055;-63
2024/01/07 04:51:45;;;;;;;4.63;2.90;;;;;;;;;;5087273;22;20147;-73
2024/01/07 04:54:10;;;;;;;4.32;3.10;;;;;;;;;;5074205;28;20076;-73
2024/01/07 04:56:36;;;;;;;3.67;3.17;;;;;;;;;;5074311;28;20028;-73
2024/01/07 04:59:02;;;;;;;3.53;3.25;;;;;;;;;;5088181;22;20106;-73
2024/01/07 05:04:56;;;;;;;2.88;2.67;;;;;;;;;;5032628;28;20103;-65
2024/01/07 05:07:21;;;;;;;3.13;2.83;;;;;;;;;;5034495;28;20026;-64
2024/01/07 05:09:46;;;;;;;3.17;2.88;;;;;;;;;;5034219;28;20036;-64
2024/01/07 05:12:12;;;;;;;2.92;2.38;;;;;;;;;;5034429;28;20033;-64
2024/01/07 05:14:37;;;;;;;14.40;8.88;;;;;;;;;;5034621;28;20061;-64
2024/01/07 05:17:03;;;;;;;6.18;5.57;;;;;;;;;;5034042;28;20475;-64
2024/01/07 05:19:29;;;;;;;3.70;3.38;;;;;;;;;;5016424;28;20390;-64
2024/01/07 05:21:55;;;;;;;3.70;2.90;;;;;;;;;;5034274;28;20022;-64
2024/01/07 05:24:20;;;;;;;3.95;3.67;;;;;;;;;;5032796;28;20021;-65
2024/01/07 05:26:46;;;;;;;3.20;3.00;;;;;;;;;;5034239;28;20060;-65
2024/01/07 05:29:11;;;;;;;5.00;4.60;;;;;;;;;;5034475;28;20353;-65
2024/01/07 05:31:37;;;;;;;6.10;5.47;;;;;;;;;;5034178;28;20100;-64
2024/01/07 05:34:06;;;;;;;10.45;9.45;;;;;;;;;;5016083;28;20436;-64
2024/01/07 05:36:31;;;;;;;3.55;3.25;;;;;;;;;;5057421;22;20055;-74
2024/01/07 05:39:01;;;;;;;3.60;3.30;;;;;;;;;;5087752;22;20490;-64
2024/01/07 05:41:26;;;;;;;4.10;3.70;;;;;;;;;;5058845;23;20148;-75
2024/01/07 05:43:52;;;;;;;4.00;3.60;;;;;;;;;;5035739;28;20159;-75
2024/01/07 05:46:17;;;;;;;3.67;3.38;;;;;;;;;;5053270;28;20056;-74
2024/01/07 05:48:53;;;;;;;4.38;3.97;;;;;;;;;;5035856;28;20118;-74
2024/01/07 05:51:18;;;;;;;6.20;5.70;;;;;;;;;;5053841;28;20056;-74
2024/01/07 05:53:44;;;;;;;13.55;11.13;;;;;;;;;;5053450;28;20029;-74
2024/01/07 05:56:10;;;;;;;4.30;4.00;;;;;;;;;;5053506;28;20374;-74
2024/01/07 05:58:35;;;;;;;4.13;3.72;;;;;;;;;;5036298;28;20063;-73
2024/01/07 06:01:01;;;;;;;4.75;4.35;;;;;;;;;;5053496;28;20017;-75
2024/01/07 06:03:26;;;;;;;6.07;5.55;;;;;;;;;;5036021;28;20348;-75
2024/01/07 06:05:52;;;;;;;7.20;6.60;;;;;;;;;;5053744;28;20111;-75
2024/01/07 06:08:18;;;;;;;42.00;22.55;;;;;;;;;;5053706;28;20410;-75
2024/01/07 06:10:44;;;;;;;18.90;11.68;;;;;;;;;;5035521;28;20040;-75
2024/01/07 06:13:09;;;;;;;16.50;9.65;;;;;;;;;;5036077;28;20057;-75
2024/01/07 06:15:35;;;;;;;16.58;8.77;;;;;;;;;;5035501;28;20029;-75
2024/01/07 06:18:01;;;;;;;24.13;12.00;;;;;;;;;;5035554;28;20029;-75
2024/01/07 06:20:26;;;;;;;44.90;22.48;;;;;;;;;;5035390;28;20040;-75
2024/01/07 06:22:52;;;;;;;66.55;24.23;;;;;;;;;;5053251;28;20029;-76
2024/01/07 06:25:20;;;;;;;49.95;20.98;;;;;;;;;;5053206;28;20029;-76
2024/01/07 06:27:45;;;;;;;53.38;23.98;;;;;;;;;;5035679;28;20418;-76
2024/01/07 06:30:11;;;;;;;57.63;25.30;;;;;;;;;;5053118;28;20056;-76
2024/01/07 06:32:36;;;;;;;39.85;18.95;;;;;;;;;;5053163;28;20028;-76
2024/01/07 06:35:03;;;;;;;19.85;13.18;;;;;;;;;;5053419;28;20029;-76
2024/01/07 06:37:29;;;;;;;11.35;9.05;;;;;;;;;;5053668;28;20096;-76
2024/01/07 06:39:55;;;;;;;19.00;13.18;;;;;;;;;;5053307;28;20087;-75
2024/01/07 06:42:21;;;;;;;53.95;22.15;;;;;;;;;;5071284;28;20506;-75
2024/01/07 06:44:46;;;;;;;65.65;26.50;;;;;;;;;;5073088;28;20056;-75
2024/01/07 06:47:12;;;;;;;45.33;21.05;;;;;;;;;;5073583;28;20036;-75
2024/01/07 06:49:38;;;;;;;29.58;16.30;;;;;;;;;;5073598;28;20035;-76
2024/01/07 06:52:04;;;;;;;11.85;9.65;;;;;;;;;;5073008;28;20082;-75
2024/01/07 06:54:29;;;;;;;23.10;11.63;;;;;;;;;;5073206;28;20386;-75
2024/01/07 06:56:55;;;;;;;10.65;7.32;;;;;;;;;;5073245;28;20031;-75
2024/01/07 06:59:21;;;;;;;4.70;4.22;;;;;;;;;;5077135;28;20036;-72
2024/01/07 07:01:46;;;;;;;4.82;4.43;;;;;;;;;;5058973;28;20031;-72
2024/01/07 07:04:13;;;;;;;4.60;4.18;;;;;;;;;;5076445;28;20029;-73
2024/01/07 07:06:38;;;;;;;9.50;5.45;;;;;;;;;;5058935;28;20028;-73
2024/01/07 07:09:03;;;;;;;3.17;2.97;;;;;;;;;;5070582;23;20119;-68
2024/01/07 07:11:29;;;;;;;4.85;3.58;;;;;;;;;;5075982;22;20052;-74
2024/01/07 07:13:54;;;;;;;3.58;3.22;;;;;;;;;;5075603;28;20060;-76
2024/01/07 07:16:20;;;;;;;5.18;3.97;;;;;;;;;;5075692;28;20439;-70
2024/01/07 07:18:45;;;;;;;5.85;5.35;;;;;;;;;;5076082;28;20067;-70
2024/01/07 07:21:10;;;;;;;5.00;4.15;;;;;;;;;;5075884;28;20028;-71
2024/01/07 07:23:36;;;;;;;5.53;4.28;;;;;;;;;;5076058;28;20101;-72
2024/01/07 07:26:02;;;;;;;4.13;3.65;;;;;;;;;;5057891;28;20078;-72
2024/01/07 07:28:27;;;;;;;6.43;5.82;;;;;;;;;;5075931;28;20020;-72
2024/01/07 07:30:53;;;;;;;45.40;40.60;;;;;;;;;;5075125;28;20032;-72
2024/01/07 07:33:18;;;;;;;66.07;59.92;;;;;;;;;;5076145;28;20052;-72
2024/01/07 07:35:44;;;;;;;8.75;7.30;;;;;;;;;;5058018;28;20039;-72
2024/01/07 07:38:10;;;;;;;8.70;7.97;;;;;;;;;;5076194;28;20028;-71
2024/01/07 07:40:35;;;;;;;12.10;10.82;;;;;;;;;;5076058;28;20088;-71
2024/01/07 07:43:01;;;;;;;10.15;7.50;;;;;;;;;;5076202;28;20063;-70
2024/01/07 07:45:28;;;;;;;22.48;20.02;;;;;;;;;;5088651;22;20109;-70
2024/01/07 07:47:53;;;;;;;8.38;7.55;;;;;;;;;;5076140;28;20029;-72
2024/01/07 07:50:19;;;;;;;34.03;29.42;;;;;;;;;;5075713;28;20032;-71
2024/01/07 07:52:44;;;;;;;10.02;9.02;;;;;;;;;;5076347;28;20047;-72
2024/01/07 07:55:11;;;;;;;4.68;4.20;;;;;;;;;;5075448;28;20033;-68
2024/01/07 07:57:37;;;;;;;6.82;5.82;;;;;;;;;;5075638;28;20032;-72
2024/01/07 08:00:12;;;;;;;4.32;3.92;;;;;;;;;;5075865;28;20035;-73
2024/01/07 08:02:38;;;;;;;14.60;9.00;;;;;;;;;;5056943;28;20029;-73
2024/01/07 08:05:03;;;;;;;20.10;10.20;;;;;;;;;;5051339;28;20032;-77
2024/01/07 08:07:29;;;;;;;24.63;12.55;;;;;;;;;;5055482;28;20191;-77
2024/01/07 08:09:56;;;;;;;31.63;15.32;;;;;;;;;;5071055;28;20098;-73
2024/01/07 08:12:22;;;;;;;13.27;9.63;;;;;;;;;;5071965;28;20027;-73
2024/01/07 08:14:47;;;;;;;12.93;8.45;;;;;;;;;;5053393;28;20032;-73
2024/01/07 08:17:13;;;;;;;27.38;13.10;;;;;;;;;;5071580;28;20017;-73
2024/01/07 08:19:39;;;;;;;22.00;11.13;;;;;;;;;;5071756;28;20099;-75
2024/01/07 08:22:04;;;;;;;12.07;8.57;;;;;;;;;;5071840;28;20470;-70
2024/01/07 08:24:30;;;;;;;15.43;12.52;;;;;;;;;;5070220;28;20028;-70
2024/01/07 08:26:55;;;;;;;8.48;7.68;;;;;;;;;;5071604;28;20075;-70
2024/01/07 08:29:21;;;;;;;7.88;7.07;;;;;;;;;;5071759;28;20039;-70
2024/01/07 08:31:46;;;;;;;14.57;10.32;;;;;;;;;;5070849;28;20030;-70
2024/01/07 08:34:12;;;;;;;10.93;8.90;;;;;;;;;;5070176;28;20051;-69
2024/01/07 08:36:38;;;;;;;18.95;14.50;;;;;;;;;;5053906;28;20025;-70
2024/01/07 08:39:04;;;;;;;7.88;6.75;;;;;;;;;;5071119;28;20444;-70
2024/01/07 08:41:29;;;;;;;20.80;14.80;;;;;;;;;;5069666;28;20028;-66
2024/01/07 08:43:55;;;;;;;19.65;13.52;;;;;;;;;;5072107;28;20044;-67
2024/01/07 08:46:21;;;;;;;19.77;10.70;;;;;;;;;;5072081;28;20132;-67
2024/01/07 08:48:47;;;;;;;11.30;7.80;;;;;;;;;;5072491;28;20790;-67
2024/01/07 08:51:12;;;;;;;14.25;12.23;;;;;;;;;;5054489;28;20040;-67
2024/01/07 08:53:40;;;;;;;17.65;11.73;;;;;;;;;;5054215;28;20394;-67
2024/01/07 08:56:06;;;;;;;23.23;16.83;;;;;;;;;;5054276;28;20039;-67
2024/01/07 08:58:32;;;;;;;13.70;9.13;;;;;;;;;;5053254;28;20021;-70
2024/01/07 09:00:57;;;;;;;7.22;6.47;;;;;;;;;;5052715;28;20051;-69
2024/01/07 09:03:23;;;;;;;9.13;7.93;;;;;;;;;;5070493;28;20039;-69
2024/01/07 09:05:49;;;;;;;7.97;7.30;;;;;;;;;;5036018;28;20024;-69
2024/01/07 09:08:14;;;;;;;15.07;9.60;;;;;;;;;;5070635;28;20032;-69
2024/01/07 09:10:40;;;;;;;17.98;13.43;;;;;;;;;;5070295;28;20043;-69
2024/01/07 09:13:05;;;;;;;10.60;9.05;;;;;;;;;;5070623;28;20036;-69
2024/01/07 09:15:31;;;;;;;14.63;10.40;;;;;;;;;;5071656;28;20033;-69
2024/01/07 09:17:57;;;;;;;9.90;8.02;;;;;;;;;;5071361;28;20028;-69
2024/01/07 09:20:23;;;;;;;10.48;8.32;;;;;;;;;;5071208;28;20474;-70
2024/01/07 09:22:49;;;;;;;5.40;4.90;;;;;;;;;;5071457;28;20032;-69
2024/01/07 09:25:14;;;;;;;8.38;7.53;;;;;;;;;;5071430;28;20473;-70
2024/01/07 09:27:39;;;;;;;5.40;4.72;;;;;;;;;;5071884;28;20039;-70
2024/01/07 09:30:05;;;;;;;6.97;5.85;;;;;;;;;;5071140;28;20020;-70
2024/01/07 09:32:31;;;;;;;7.43;6.68;;;;;;;;;;5053194;28;20032;-69
2024/01/07 09:34:57;;;;;;;8.05;5.22;;;;;;;;;;5054483;28;20021;-69
2024/01/07 09:37:23;;;;;;;12.30;10.15;;;;;;;;;;5054196;28;20024;-69
2024/01/07 09:39:49;;;;;;;53.90;39.20;;;;;;;;;;5071801;28;20044;-69
2024/01/07 09:42:15;;;;;;;43.33;31.35;;;;;;;;;;5071424;28;20056;-70
2024/01/07 09:44:46;;;;;;;28.98;18.40;;;;;;;;;;5054109;28;20070;-69
2024/01/07 09:47:11;;;;;;;;;;;;;;;;;;5055560;28;20426;-70
2024/01/07 09:49:37;;;;;;;21.20;17.27;;;;;;;;;;5053602;28;19991;-69
2024/01/07 09:52:03;;;;;;;29.38;24.40;;;;;;;;;;5071004;28;20282;-69
2024/01/07 09:54:29;;;;;;;12.55;9.50;;;;;;;;;;5070672;28;20072;-69
2024/01/07 09:56:59;;;;;;;19.20;17.23;;;;;;;;;;5070673;28;20059;-69
2024/01/07 09:59:25;;;;;;;15.13;12.35;;;;;;;;;;5071626;28;20040;-70
2024/01/07 10:01:52;;;;;;;63.75;43.75;;;;;;;;;;5053882;28;20082;-70
2024/01/07 10:04:17;;;;;;;54.40;36.60;;;;;;;;;;5053380;28;20107;-70
2024/01/07 10:06:43;;;;;;;111.50;70.47;;;;;;;;;;5070827;28;20226;-69
2024/01/07 10:09:08;;;;;;;312.23;135.38;;;;;;;;;;5052847;28;20059;-69
2024/01/07 10:11:33;;;;;;;278.30;122.25;;;;;;;;;;5072237;28;20048;-69
2024/01/07 10:13:59;;;;;;;510.60;297.10;;;;;;;;;;5055467;28;20051;-69
2024/01/07 10:16:25;;;;;;;176.02;124.03;;;;;;;;;;5073894;28;20074;-69
2024/01/07 10:18:50;;;;;;;66.57;31.88;;;;;;;;;;5073801;28;20374;-68
2024/01/07 10:21:18;;;;;;;56.88;26.50;;;;;;;;;;5055886;28;20025;-69
2024/01/07 10:23:44;;;;;;;6.85;6.00;;;;;;;;;;5039063;28;20045;-69
2024/01/07 10:26:09;;;;;;;20.77;17.20;;;;;;;;;;5073153;28;20047;-68
2024/01/07 10:28:37;;;;;;;36.55;25.25;;;;;;;;;;5072983;28;20029;-68
2024/01/07 10:31:03;;;;;;;17.25;12.07;;;;;;;;;;5072654;28;20036;-68
2024/01/07 10:33:34;;;;;;;9.07;8.25;;;;;;;;;;5074931;28;20115;-68
2024/01/07 10:36:05;;;;;;;5.90;5.00;;;;;;;;;;5076424;28;20071;-68
2024/01/07 10:38:32;;;;;;;22.42;15.40;;;;;;;;;;5076914;28;20077;-69
2024/01/07 10:40:58;;;;;;;50.13;28.40;;;;;;;;;;5076829;28;20071;-68
2024/01/07 10:43:26;;;;;;;9.73;8.63;;;;;;;;;;5076666;28;20052;-68
2024/01/07 10:45:52;;;;;;;17.45;11.70;;;;;;;;;;5076059;28;20187;-68
2024/01/07 10:48:19;;;;;;;16.95;14.27;;;;;;;;;;5076772;28;20024;-68
2024/01/07 10:50:50;;;;;;;16.42;12.80;;;;;;;;;;5059285;28;20402;-68
2024/01/07 10:53:19;;;;;;;28.10;20.05;;;;;;;;;;5076636;28;20460;-68
2024/01/07 10:55:49;;;;;;;66.70;42.78;;;;;;;;;;5059028;28;20038;-68
2024/01/07 10:58:15;;;;;;;42.50;27.17;;;;;;;;;;5076916;28;20033;-68
2024/01/07 11:00:40;;;;;;;21.15;15.23;;;;;;;;;;5058678;28;20035;-68
2024/01/07 11:03:18;;;;;;;20.30;15.18;;;;;;;;;;5059622;28;20032;-68
2024/01/07 11:05:46;;;;;;;9.40;7.47;;;;;;;;;;5076615;28;20078;-68
2024/01/07 11:08:32;;;;;;;8.07;6.93;;;;;;;;;;5059637;28;20103;-68
2024/01/07 11:11:00;;;;;;;7.13;6.28;;;;;;;;;;5075763;28;20102;-68
2024/01/07 11:13:37;;;;;;;51.15;27.08;;;;;;;;;;5076246;28;20146;-68
2024/01/07 11:16:02;;;;;;;81.07;45.75;;;;;;;;;;5076389;28;20064;-68
2024/01/07 11:18:33;;;;;;;7.90;7.10;;;;;;;;;;5076567;28;20068;-68
2024/01/07 11:20:58;;;;;;;;;;;;;;;;;;5076647;28;20025;-68
2024/01/07 11:23:26;;;;;;;8.80;5.63;;;;;;;;;;5076190;28;20324;-67
2024/01/07 11:25:51;;;;;;;125.05;56.30;;;;;;;;;;5076717;28;20082;-68
2024/01/07 11:28:16;;;;;;;17.55;8.93;;;;;;;;;;5076906;28;20064;-68
2024/01/07 11:30:42;;;;;;;13.25;7.72;;;;;;;;;;5076715;28;20040;-68
2024/01/07 11:33:11;;;;;;;7.57;6.13;;;;;;;;;;5058078;28;20036;-68
2024/01/07 11:36:01;;;;;;;16.52;9.57;;;;;;;;;;5076383;28;20032;-67
2024/01/07 11:38:26;;;;;;;5.60;5.00;;;;;;;;;;5050870;28;20488;-67
2024/01/07 11:40:52;;;;;;;26.00;17.23;;;;;;;;;;5076029;28;20028;-67
2024/01/07 11:43:18;;;;;;;25.48;15.48;;;;;;;;;;5075340;28;20170;-68
2024/01/07 11:45:44;;;;;;;43.75;25.20;;;;;;;;;;5075060;28;20041;-68
2024/01/07 11:48:09;;;;;;;52.80;30.95;;;;;;;;;;5076303;28;20464;-67
2024/01/07 11:50:35;;;;;;;14.18;10.75;;;;;;;;;;5057885;28;20029;-68
2024/01/07 11:53:00;;;;;;;30.73;21.50;;;;;;;;;;5076246;28;20343;-68
2024/01/07 11:55:26;;;;;;;24.63;17.00;;;;;;;;;;5075915;28;20040;-68
2024/01/07 11:57:52;;;;;;;16.85;12.40;;;;;;;;;;5075799;28;20035;-69
2024/01/07 12:03:07;;;;;;;27.27;19.63;;;;;;;;;;5091755;22;20486;-69
2024/01/07 12:05:33;;;;;;;42.80;27.45;;;;;;;;;;5057049;28;20025;-68
2024/01/07 12:08:00;;;;;;;86.78;55.88;;;;;;;;;;5075904;28;20454;-67
2024/01/07 12:10:25;;;;;;;10.90;8.73;;;;;;;;;;5075268;28;20062;-67
2024/01/07 12:12:51;;;;;;;35.05;24.88;;;;;;;;;;5075156;28;20024;-68
2024/01/07 12:15:17;;;;;;;31.52;24.52;;;;;;;;;;5058025;28;20066;-68
2024/01/07 12:17:54;;;;;;;23.10;18.70;;;;;;;;;;5057632;28;20417;-68
2024/01/07 12:20:20;;;;;;;15.40;12.63;;;;;;;;;;5075515;28;20381;-68
2024/01/07 12:22:45;;;;;;;19.75;17.63;;;;;;;;;;5075567;28;20108;-68
2024/01/07 12:25:11;;;;;;;44.53;27.80;;;;;;;;;;5074992;28;20478;-69
2024/01/07 12:27:36;;;;;;;226.23;116.63;;;;;;;;;;5057171;28;20466;-69
2024/01/07 12:30:04;;;;;;;8.75;7.47;;;;;;;;;;5075148;28;20033;-69
2024/01/07 12:32:30;;;;;;;9.40;8.32;;;;;;;;;;5087918;22;20083;-69
2024/01/07 12:35:01;;;;;;;12.32;9.27;;;;;;;;;;5074442;22;20111;-68
2024/01/07 12:37:27;;;;;;;;;;;;;;;;;;5055522;28;20095;-69
2024/01/07 12:39:52;;;;;;;16.40;12.52;;;;;;;;;;5055437;28;19913;-68
2024/01/07 12:42:18;;;;;;;29.45;23.17;;;;;;;;;;5037449;28;20108;-69
2024/01/07 12:44:44;;;;;;;34.22;30.50;;;;;;;;;;5054890;28;20040;-69
2024/01/07 12:47:09;;;;;;;13.68;11.02;;;;;;;;;;5055111;28;20033;-69
2024/01/07 12:49:35;;;;;;;33.28;15.75;;;;;;;;;;5054547;28;20108;-69
2024/01/07 12:52:01;;;;;;;23.40;14.50;;;;;;;;;;5054515;28;20382;-69
2024/01/07 12:54:27;;;;;;;12.15;9.57;;;;;;;;;;5054626;28;20116;-69
2024/01/07 12:56:52;;;;;;;18.80;13.32;;;;;;;;;;5036170;28;20087;-69
2024/01/07 12:59:18;;;;;;;22.02;17.00;;;;;;;;;;5054650;28;20033;-69
2024/01/07 13:01:43;;;;;;;28.92;21.15;;;;;;;;;;5054269;28;20112;-69
2024/01/07 13:04:09;;;;;;;63.10;35.92;;;;;;;;;;5054843;28;20032;-69
2024/01/07 13:06:35;;;;;;;43.92;28.25;;;;;;;;;;5054205;28;20417;-69
2024/01/07 13:09:03;;;;;;;32.58;20.52;;;;;;;;;;5054240;28;20112;-70
2024/01/07 13:11:29;;;;;;;88.97;39.58;;;;;;;;;;5036228;28;20025;-69
2024/01/07 13:13:58;;;;;;;51.17;30.13;;;;;;;;;;5054274;28;20039;-69
2024/01/07 13:16:25;;;;;;;67.47;38.25;;;;;;;;;;5036191;28;20049;-69
2024/01/07 13:18:50;;;;;;;26.52;17.00;;;;;;;;;;5054351;28;20025;-69
2024/01/07 13:21:17;;;;;;;73.43;41.03;;;;;;;;;;5054048;28;20374;-69
2024/01/07 13:23:44;;;;;;;60.70;33.55;;;;;;;;;;5036065;28;20032;-69
2024/01/07 13:26:10;;;;;;;56.80;30.38;;;;;;;;;;5054474;28;20439;-69
2024/01/07 13:28:36;;;;;;;31.67;19.63;;;;;;;;;;5054406;28;20028;-69
2024/01/07 13:31:03;;;;;;;11.35;9.98;;;;;;;;;;5036369;28;20523;-69
2024/01/07 13:33:29;;;;;;;14.63;12.25;;;;;;;;;;5054034;28;20032;-69
2024/01/07 13:35:54;;;;;;;8.45;7.63;;;;;;;;;;5072745;28;20567;-69
2024/01/07 13:38:19;;;;;;;19.20;13.60;;;;;;;;;;5072521;28;20039;-69
2024/01/07 13:40:45;;;;;;;8.60;7.72;;;;;;;;;;5071814;22;20052;-69
2024/01/07 13:43:11;;;;;;;13.52;11.65;;;;;;;;;;5071762;28;20529;-69
2024/01/07 13:45:46;;;;;;;31.65;19.35;;;;;;;;;;5055784;28;20032;-69
2024/01/07 13:48:11;;;;;;;33.58;21.55;;;;;;;;;;5073773;28;20086;-69
2024/01/07 13:50:37;;;;;;;23.23;15.55;;;;;;;;;;5056394;28;20561;-69
2024/01/07 13:53:02;;;;;;;17.95;12.48;;;;;;;;;;5056217;28;20379;-69
2024/01/07 13:55:28;;;;;;;18.00;13.75;;;;;;;;;;5073954;28;20021;-69
2024/01/07 13:57:53;;;;;;;28.92;17.00;;;;;;;;;;5055719;28;20068;-68
2024/01/07 14:00:19;;;;;;;241.52;85.75;;;;;;;;;;5055532;28;20024;-69
2024/01/07 14:02:47;;;;;;;169.23;80.60;;;;;;;;;;5073476;28;20090;-68
2024/01/07 14:05:13;;;;;;;333.45;178.60;;;;;;;;;;5055514;28;20398;-68
2024/01/07 14:07:38;;;;;;;38.35;25.73;;;;;;;;;;5074757;28;20028;-68
2024/01/07 14:10:05;;;;;;;118.38;47.72;;;;;;;;;;5077872;28;20025;-68
2024/01/07 14:12:31;;;;;;;18.70;13.70;;;;;;;;;;5091595;22;20136;-67
2024/01/07 14:14:56;;;;;;;36.92;22.95;;;;;;;;;;5058691;28;20116;-69
2024/01/07 14:17:21;;;;;;;14.38;11.43;;;;;;;;;;5077533;28;20032;-70
2024/01/07 14:19:47;;;;;;;27.83;18.90;;;;;;;;;;5077712;28;20373;-70
2024/01/07 14:22:16;;;;;;;79.07;35.78;;;;;;;;;;5088960;22;20095;-68
2024/01/07 14:24:41;;;;;;;16.02;11.65;;;;;;;;;;5076553;28;20036;-68
2024/01/07 14:27:14;;;;;;;51.17;32.70;;;;;;;;;;5077001;28;20107;-68
2024/01/07 14:29:39;;;;;;;27.10;17.10;;;;;;;;;;5059326;28;20044;-67
2024/01/07 14:32:05;;;;;;;20.52;14.05;;;;;;;;;;5059120;28;20029;-68
2024/01/07 14:34:31;;;;;;;28.98;16.85;;;;;;;;;;5077256;28;20078;-68